Terminal Aerodrome Forecast
Issued by NWS Milwaukee/Sullivan, WI

Home | Current Version | Previous Version | Text Only | Print | Product List | Glossary On
Versions: 1 2 3 4 5 6 7 8 9 10 11 12 13 14 15 16 17 18 19 20 21 22 23 24 25 26 27 28 29 30 31 32 33 34 35 36 37 38 39 40 41 42 43 44 45 46 47
000
FTUS43 KMKX 232018 AAB
TAFMKE
TAF AMD
KMKE 232018Z 2320/2424 17011G20KT P6SM BKN050 BKN250
     FM240100 18007KT P6SM SCT250
     FM240700 18007KT P6SM BKN080 PROB30 2409/2412 4SM -TSRA
      OVC025CB
     FM241200 18008KT P6SM SHRA VCTS OVC035CB
     FM241300 18009KT 6SM SHRA VCTS OVC025CB
     FM241400 19010G18KT 5SM SHRA VCTS OVC015CB
     FM242000 21010G18KT P6SM SHRA VCTS BKN020CB
     FM242200 21010KT P6SM SHRA VCTS BKN045CB=

USA.gov is the U.S. government's official web portal to all federal, state and local government web resources and services.